createdAt,value
2018-09-10T00:00:18.152Z,2.12
2018-09-10T00:01:21.627Z,2.30
2018-09-10T00:02:25.296Z,2.30
2018-09-10T00:03:28.352Z,2.02
2018-09-10T00:04:31.634Z,2.27
2018-09-10T00:05:34.675Z,2.62
2018-09-10T00:06:37.762Z,2.22
2018-09-10T00:07:41.846Z,2.08
2018-09-10T00:08:46.431Z,2.20
2018-09-10T00:09:50.534Z,1.90
2018-09-10T00:10:54.283Z,2.12
2018-09-10T00:11:58.086Z,2.30
2018-09-10T00:13:01.162Z,1.95
2018-09-10T00:14:04.972Z,2.37
2018-09-10T00:15:08.687Z,2.27
2018-09-10T00:16:12.684Z,2.12
2018-09-10T00:17:15.775Z,2.17
2018-09-10T00:18:18.876Z,2.50
2018-09-10T00:19:21.944Z,2.35
2018-09-10T00:20:25.004Z,2.02
2018-09-10T00:21:29.050Z,2.27
2018-09-10T00:22:32.655Z,1.87
2018-09-10T00:23:36.614Z,2.40
2018-09-10T00:24:40.401Z,2.45
2018-09-10T00:25:43.476Z,2.05
2018-09-10T00:26:46.848Z,2.33
2018-09-10T00:27:51.851Z,2.20
2018-09-10T00:28:54.936Z,2.58
2018-09-10T00:29:58.475Z,2.40
2018-09-10T00:31:01.863Z,2.15
2018-09-10T00:32:04.924Z,2.17
2018-09-10T00:33:09.975Z,2.47
2018-09-10T00:34:13.709Z,2.00
2018-09-10T00:35:16.763Z,1.90
2018-09-10T00:36:20.461Z,2.12
2018-09-10T00:37:23.516Z,1.90
2018-09-10T00:38:26.867Z,2.30
2018-09-10T00:39:30.528Z,2.20
2018-09-10T00:40:34.200Z,2.50
2018-09-10T00:41:37.576Z,2.20
2018-09-10T00:42:41.672Z,2.08
2018-09-10T00:43:45.364Z,2.15
2018-09-10T00:44:48.395Z,1.98
2018-09-10T00:45:52.363Z,2.47
2018-09-10T00:46:55.972Z,2.30
2018-09-10T00:47:59.675Z,2.20
2018-09-10T00:49:03.038Z,2.10
2018-09-10T00:50:06.299Z,2.10
2018-09-10T00:51:09.348Z,2.27
2018-09-10T00:52:12.428Z,2.40
2018-09-10T00:53:16.535Z,2.33
2018-09-10T00:54:19.548Z,2.20
2018-09-10T00:55:22.847Z,2.12
2018-09-10T00:56:25.888Z,2.30
2018-09-10T00:57:28.933Z,2.22
2018-09-10T00:58:32.619Z,2.22
2018-09-10T00:59:36.266Z,2.08
2018-09-10T01:00:39.753Z,2.30
2018-09-10T01:01:44.176Z,2.30
2018-09-10T01:02:47.210Z,2.15
2018-09-10T01:03:50.765Z,2.00
2018-09-10T01:04:55.310Z,2.20
2018-09-10T01:05:58.643Z,2.40
2018-09-10T01:07:03.164Z,2.25
2018-09-10T01:08:06.211Z,1.90
2018-09-10T01:09:09.991Z,2.12
2018-09-10T01:10:13.244Z,2.40
2018-09-10T01:11:16.655Z,2.42
2018-09-10T01:12:19.721Z,2.30
2018-09-10T01:13:23.905Z,2.30
2018-09-10T01:14:27.005Z,2.05
2018-09-10T01:15:30.026Z,2.15
2018-09-10T01:16:33.085Z,2.10
2018-09-10T01:17:36.239Z,2.25
2018-09-10T01:18:39.595Z,2.10
2018-09-10T01:19:43.556Z,2.20
2018-09-10T01:20:46.632Z,2.30
2018-09-10T01:21:50.129Z,2.17
2018-09-10T01:22:53.207Z,2.20
2018-09-10T01:23:56.274Z,2.12
2018-09-10T01:24:59.368Z,2.05
2018-09-10T01:26:03.655Z,2.40
2018-09-10T01:27:07.193Z,2.05
2018-09-10T01:28:10.780Z,2.20
2018-09-10T01:29:14.300Z,2.35
2018-09-10T01:30:17.304Z,2.35
2018-09-10T01:31:20.844Z,2.35
2018-09-10T01:32:23.952Z,2.15
2018-09-10T01:33:32.406Z,2.02
2018-09-10T01:35:10.089Z,2.20
2018-09-10T01:36:13.659Z,2.10
2018-09-10T01:37:16.749Z,2.00
2018-09-10T01:38:19.813Z,2.22
2018-09-10T01:39:22.855Z,2.30
2018-09-10T01:40:26.097Z,2.45
2018-09-10T01:41:29.900Z,2.33
2018-09-10T01:42:33.551Z,2.08
2018-09-10T01:43:36.555Z,2.35
2018-09-10T01:44:39.896Z,2.20
2018-09-10T01:45:42.989Z,2.20
2018-09-10T01:46:47.020Z,2.20
2018-09-10T01:47:49.977Z,2.40
2018-09-10T01:48:52.963Z,2.60
2018-09-10T01:49:56.128Z,1.92
2018-09-10T01:50:59.156Z,2.40
2018-09-10T01:52:02.663Z,2.10
2018-09-10T01:53:05.766Z,2.40
2018-09-10T01:54:08.838Z,1.95
2018-09-10T01:55:11.844Z,2.40
2018-09-10T01:56:15.512Z,2.10
2018-09-10T01:57:19.451Z,2.20
2018-09-10T01:58:24.085Z,2.50
2018-09-10T01:59:27.150Z,2.35
2018-09-10T02:00:30.645Z,2.05
2018-09-10T02:01:33.989Z,2.30
2018-09-10T02:02:37.627Z,2.30
2018-09-10T02:03:40.682Z,2.30
2018-09-10T02:04:43.819Z,2.05
2018-09-10T02:05:46.833Z,1.92
2018-09-10T02:06:50.394Z,2.58
2018-09-10T02:07:53.911Z,2.40
2018-09-10T02:08:57.021Z,2.50
2018-09-10T02:10:00.167Z,2.12
2018-09-10T02:11:04.338Z,2.25
2018-09-10T02:12:14.901Z,2.58
2018-09-10T02:13:19.392Z,2.40
2018-09-10T02:14:23.539Z,2.17
2018-09-10T02:15:27.683Z,2.40
2018-09-10T02:16:30.804Z,2.17
2018-09-10T02:17:34.321Z,2.52
2018-09-10T02:18:39.580Z,2.22
2018-09-10T02:19:43.341Z,2.35
2018-09-10T02:20:46.771Z,2.47
2018-09-10T02:21:50.092Z,1.90
2018-09-10T02:22:53.507Z,2.20
2018-09-10T02:23:56.619Z,2.12
2018-09-10T02:25:00.034Z,2.20
2018-09-10T02:26:03.143Z,2.10
2018-09-10T02:27:06.833Z,2.08
2018-09-10T02:28:09.925Z,2.33
2018-09-10T02:29:13.172Z,2.08
2018-09-10T02:30:16.903Z,2.22
2018-09-10T02:31:20.115Z,2.58
2018-09-10T02:32:23.625Z,2.22
2018-09-10T02:33:28.691Z,2.35
2018-09-10T02:34:32.552Z,2.62
2018-09-10T02:35:35.753Z,2.30
2018-09-10T02:36:40.017Z,2.55
2018-09-10T02:37:43.721Z,2.30
2018-09-10T02:38:47.849Z,2.67
2018-09-10T02:39:51.356Z,2.37
2018-09-10T02:40:54.795Z,2.47
2018-09-10T02:41:57.937Z,2.60
2018-09-10T02:43:02.933Z,2.12
2018-09-10T02:44:06.905Z,2.22
2018-09-10T02:45:09.969Z,2.40
2018-09-10T02:46:13.662Z,2.58
2018-09-10T02:47:16.916Z,2.22
2018-09-10T02:48:20.635Z,2.50
2018-09-10T02:49:24.565Z,2.35
2018-09-10T02:50:28.088Z,2.37
2018-09-10T02:51:31.420Z,2.27
2018-09-10T02:52:35.535Z,2.30
2018-09-10T02:53:39.848Z,2.52
2018-09-10T02:54:42.886Z,2.65
2018-09-10T02:55:45.943Z,2.40
2018-09-10T02:56:49.404Z,2.45
2018-09-10T02:57:53.336Z,2.50
2018-09-10T02:58:56.423Z,2.50
2018-09-10T02:59:59.443Z,2.25
2018-09-10T03:01:02.495Z,2.47
2018-09-10T03:02:05.581Z,2.25
2018-09-10T03:03:08.591Z,2.25
2018-09-10T03:04:11.633Z,2.35
2018-09-10T03:05:14.711Z,2.30
2018-09-10T03:06:18.227Z,2.80
2018-09-10T03:07:21.280Z,2.20
2018-09-10T03:08:24.310Z,2.27
2018-09-10T03:09:27.980Z,2.40
2018-09-10T03:10:31.004Z,2.45
2018-09-10T03:11:34.244Z,2.20
2018-09-10T03:12:37.400Z,2.80
2018-09-10T03:13:40.978Z,2.12
2018-09-10T03:14:44.166Z,2.60
2018-09-10T03:15:47.206Z,2.30
2018-09-10T03:16:51.047Z,2.17
2018-09-10T03:17:54.138Z,2.33
2018-09-10T03:18:57.144Z,2.20
2018-09-10T03:20:00.351Z,2.83
2018-09-10T03:21:03.365Z,2.33
2018-09-10T03:22:07.075Z,2.05
2018-09-10T03:23:10.132Z,2.50
2018-09-10T03:24:13.862Z,2.60
2018-09-10T03:25:17.621Z,2.17
2018-09-10T03:26:20.791Z,2.62
2018-09-10T03:27:23.824Z,2.20
2018-09-10T03:28:28.420Z,2.40
2018-09-10T03:29:31.445Z,2.40
2018-09-10T03:30:35.168Z,2.45
2018-09-10T03:31:38.169Z,2.70
2018-09-10T03:32:41.802Z,2.50
2018-09-10T03:33:44.915Z,2.47
2018-09-10T03:34:48.121Z,2.58
2018-09-10T03:35:51.370Z,2.40
2018-09-10T03:36:54.371Z,2.52
2018-09-10T03:37:57.429Z,2.40
2018-09-10T03:39:00.433Z,2.17
2018-09-10T03:40:03.563Z,2.70
2018-09-10T03:41:06.623Z,2.27
2018-09-10T03:42:09.852Z,2.30
2018-09-10T03:43:13.096Z,2.52
2018-09-10T03:44:16.143Z,2.50
2018-09-10T03:45:19.633Z,2.50
2018-09-10T03:46:23.336Z,2.60
2018-09-10T03:47:27.834Z,2.60
2018-09-10T03:48:30.793Z,2.40
2018-09-10T03:49:33.851Z,2.50
2018-09-10T03:50:36.867Z,2.90
2018-09-10T03:51:40.589Z,2.37
2018-09-10T03:52:44.286Z,2.62
2018-09-10T03:53:47.898Z,2.45
2018-09-10T03:54:51.853Z,2.37
2018-09-10T03:55:54.876Z,2.55
2018-09-10T03:56:58.315Z,2.40
2018-09-10T03:58:01.855Z,2.37
2018-09-10T03:59:04.920Z,2.60
2018-09-10T04:00:08.229Z,2.67
2018-09-10T04:01:11.253Z,2.58
2018-09-10T04:02:15.090Z,2.50
2018-09-10T04:03:18.128Z,2.55
2018-09-10T04:04:21.128Z,2.40
2018-09-10T04:05:24.180Z,2.60
2018-09-10T04:06:27.605Z,2.50
2018-09-10T04:07:30.725Z,2.70
2018-09-10T04:08:33.777Z,2.72
2018-09-10T04:09:37.583Z,2.62
2018-09-10T04:10:41.332Z,2.72
2018-09-10T04:11:45.197Z,2.50
2018-09-10T04:12:48.196Z,2.40
2018-09-10T04:13:51.233Z,2.62
2018-09-10T04:14:54.272Z,2.80
2018-09-10T04:15:57.358Z,2.70
2018-09-10T04:17:00.459Z,2.55
2018-09-10T04:18:03.392Z,2.42
2018-09-10T04:19:06.441Z,2.65
2018-09-10T04:20:11.661Z,2.80
2018-09-10T04:21:14.665Z,2.40
2018-09-10T04:22:17.660Z,2.50
2018-09-10T04:23:21.083Z,2.70
2018-09-10T04:24:24.112Z,2.50
2018-09-10T04:25:27.108Z,2.30
2018-09-10T04:26:31.211Z,2.45
2018-09-10T04:27:34.709Z,2.50
2018-09-10T04:28:37.743Z,2.72
2018-09-10T04:29:40.811Z,2.55
2018-09-10T04:30:43.857Z,2.27
2018-09-10T04:31:46.842Z,2.50
2018-09-10T04:32:49.938Z,2.60
2018-09-10T04:33:53.280Z,2.80
2018-09-10T04:34:57.169Z,2.40
2018-09-10T04:36:00.223Z,2.52
2018-09-10T04:37:03.206Z,2.40
2018-09-10T04:38:07.075Z,2.45
2018-09-10T04:39:11.487Z,2.70
2018-09-10T04:40:14.540Z,2.50
2018-09-10T04:41:18.081Z,2.30
2018-09-10T04:42:21.345Z,2.65
2018-09-10T04:43:24.336Z,2.45
2018-09-10T04:44:28.235Z,2.62
2018-09-10T04:45:31.256Z,2.65
2018-09-10T04:46:34.563Z,2.35
2018-09-10T04:47:37.794Z,2.65
2018-09-10T04:48:41.316Z,2.50
2018-09-10T04:49:44.329Z,2.67
2018-09-10T04:50:48.243Z,2.65
2018-09-10T04:51:51.265Z,2.70
2018-09-10T04:52:54.303Z,2.58
2018-09-10T04:53:57.301Z,2.47
2018-09-10T04:55:00.358Z,2.45
2018-09-10T04:56:03.924Z,2.58
2018-09-10T04:57:07.159Z,2.52
2018-09-10T04:58:10.699Z,2.47
2018-09-10T04:59:13.677Z,2.65
2018-09-10T05:00:16.669Z,2.80
2018-09-10T05:01:19.701Z,2.80
2018-09-10T05:02:22.768Z,2.70
2018-09-10T05:03:25.832Z,2.60
2018-09-10T05:04:29.603Z,2.58
2018-09-10T05:05:32.575Z,2.65
2018-09-10T05:06:35.920Z,2.45
2018-09-10T05:07:39.112Z,2.60
2018-09-10T05:08:42.384Z,2.60
2018-09-10T05:09:45.448Z,2.87
2018-09-10T05:10:48.463Z,2.37
2018-09-10T05:11:51.843Z,2.80
2018-09-10T05:12:54.900Z,2.62
2018-09-10T05:13:57.998Z,2.67
2018-09-10T05:15:01.667Z,2.60
2018-09-10T05:16:04.693Z,2.60
2018-09-10T05:17:07.707Z,2.60
2018-09-10T05:18:10.729Z,2.80
2018-09-10T05:19:13.772Z,2.37
2018-09-10T05:20:16.842Z,2.62
2018-09-10T05:21:19.782Z,2.60
2018-09-10T05:22:23.029Z,2.50
2018-09-10T05:23:26.040Z,2.33
2018-09-10T05:24:29.588Z,2.65
2018-09-10T05:25:32.628Z,2.65
2018-09-10T05:26:35.659Z,2.55
2018-09-10T05:27:40.297Z,2.60
2018-09-10T05:28:43.293Z,2.42
2018-09-10T05:29:46.309Z,2.80
2018-09-10T05:30:49.294Z,2.60
2018-09-10T05:31:53.448Z,2.45
2018-09-10T05:32:56.536Z,2.50
2018-09-10T05:33:59.608Z,3.10
2018-09-10T05:35:02.660Z,3.00
2018-09-10T05:36:06.345Z,2.70
2018-09-10T05:37:09.320Z,2.60
2018-09-10T05:38:12.404Z,2.77
2018-09-10T05:39:19.252Z,2.40
2018-09-10T05:40:23.543Z,2.22
2018-09-10T05:41:26.644Z,2.45
2018-09-10T05:42:29.732Z,2.83
2018-09-10T05:43:35.107Z,2.22
2018-09-10T05:44:39.563Z,2.58
2018-09-10T05:45:43.440Z,2.70
2018-09-10T05:46:47.069Z,2.87
2018-09-10T05:47:50.212Z,2.58
2018-09-10T05:48:53.211Z,2.33
2018-09-10T05:49:56.208Z,2.90
2018-09-10T05:50:59.263Z,2.42
2018-09-10T05:52:02.764Z,2.87
2018-09-10T05:53:06.049Z,2.70
2018-09-10T05:54:09.721Z,2.65
2018-09-10T05:55:12.713Z,2.62
2018-09-10T05:56:16.332Z,2.77
2018-09-10T05:57:20.035Z,2.85
2018-09-10T05:58:23.165Z,2.72
2018-09-10T05:59:26.340Z,2.67
2018-09-10T06:00:29.840Z,3.33
2018-09-10T06:01:33.898Z,2.90
2018-09-10T06:02:36.915Z,3.10
2018-09-10T06:03:39.935Z,2.70
2018-09-10T06:04:43.352Z,2.85
2018-09-10T06:05:46.371Z,3.27
2018-09-10T06:06:49.406Z,3.00
2018-09-10T06:07:52.491Z,2.98
2018-09-10T06:08:55.536Z,3.22
2018-09-10T06:09:58.590Z,3.45
2018-09-10T06:11:01.618Z,2.67
2018-09-10T06:12:04.627Z,3.10
2018-09-10T06:13:07.661Z,2.80
2018-09-10T06:14:10.733Z,3.30
2018-09-10T06:15:13.766Z,2.80
2018-09-10T06:16:16.778Z,2.85
2018-09-10T06:17:19.765Z,2.77
2018-09-10T06:18:22.807Z,2.90
2018-09-10T06:19:25.844Z,3.02
2018-09-10T06:20:28.871Z,2.75
2018-09-10T06:21:32.003Z,3.20
2018-09-10T06:22:35.032Z,2.40
2018-09-10T06:23:38.049Z,2.52
2018-09-10T06:24:41.031Z,2.55
2018-09-10T06:25:44.165Z,2.52
2018-09-10T06:26:47.236Z,3.10
2018-09-10T06:27:50.309Z,2.75
2018-09-10T06:28:53.348Z,2.62
2018-09-10T06:29:56.352Z,2.90
2018-09-10T06:30:59.384Z,2.80
2018-09-10T06:32:02.381Z,2.77
2018-09-10T06:33:05.372Z,2.67
2018-09-10T06:34:08.456Z,2.75
2018-09-10T06:35:11.413Z,2.70
2018-09-10T06:36:14.473Z,2.60
2018-09-10T06:37:17.570Z,2.65
2018-09-10T06:38:20.548Z,2.40
2018-09-10T06:39:23.565Z,2.77
2018-09-10T06:40:26.618Z,2.77
2018-09-10T06:41:29.626Z,2.67
2018-09-10T06:42:32.648Z,2.72
2018-09-10T06:43:35.643Z,2.22
2018-09-10T06:44:38.690Z,2.60
2018-09-10T06:45:41.749Z,2.20
2018-09-10T06:46:44.815Z,2.55
2018-09-10T06:47:47.964Z,2.72
2018-09-10T06:48:51.025Z,2.50
2018-09-10T06:49:54.059Z,2.80
2018-09-10T06:50:57.116Z,2.70
2018-09-10T06:52:00.112Z,2.52
2018-09-10T06:53:03.451Z,2.35
2018-09-10T06:54:06.578Z,2.20
2018-09-10T06:55:09.628Z,2.60
2018-09-10T06:56:12.780Z,2.58
2018-09-10T06:57:15.871Z,2.45
2018-09-10T06:58:18.891Z,2.70
2018-09-10T06:59:22.171Z,2.33
2018-09-10T07:00:25.397Z,2.40
2018-09-10T07:01:28.329Z,2.90
2018-09-10T07:02:31.344Z,2.52
2018-09-10T07:03:34.344Z,2.67
2018-09-10T07:04:37.408Z,2.35
2018-09-10T07:05:40.445Z,2.40
2018-09-10T07:06:43.496Z,2.60
2018-09-10T07:07:46.501Z,2.65
2018-09-10T07:08:49.564Z,2.35
2018-09-10T07:09:52.563Z,2.37
2018-09-10T07:10:55.636Z,2.75
2018-09-10T07:11:58.615Z,2.50
2018-09-10T07:13:01.646Z,2.45
2018-09-10T07:14:04.760Z,2.60
2018-09-10T07:15:07.825Z,2.60
2018-09-10T07:16:10.966Z,2.30
2018-09-10T07:17:13.968Z,2.33
2018-09-10T07:18:17.040Z,2.30
2018-09-10T07:19:20.170Z,2.45
2018-09-10T07:20:23.215Z,2.58
2018-09-10T07:21:26.414Z,2.42
2018-09-10T07:22:29.490Z,2.60
2018-09-10T07:23:32.554Z,2.50
2018-09-10T07:24:35.777Z,2.17
2018-09-10T07:25:38.852Z,2.27
2018-09-10T07:26:41.852Z,2.58
2018-09-10T07:27:44.895Z,2.40
2018-09-10T07:28:48.050Z,2.40
2018-09-10T07:29:51.131Z,2.35
2018-09-10T07:30:54.228Z,2.08
2018-09-10T07:31:57.253Z,2.47
2018-09-10T07:33:00.299Z,2.40
2018-09-10T07:34:03.349Z,2.22
2018-09-10T07:35:06.372Z,2.20
2018-09-10T07:36:09.422Z,2.02
2018-09-10T07:37:12.474Z,2.27
2018-09-10T07:38:15.517Z,1.92
2018-09-10T07:39:18.553Z,2.70
2018-09-10T07:40:21.590Z,2.22
2018-09-10T07:41:24.600Z,2.00
2018-09-10T07:42:27.701Z,2.40
2018-09-10T07:43:30.769Z,2.00
2018-09-10T07:44:33.855Z,2.15
2018-09-10T07:45:36.884Z,2.20
2018-09-10T07:46:39.934Z,2.15
2018-09-10T07:47:42.963Z,1.95
2018-09-10T07:48:46.039Z,2.15
2018-09-10T07:49:49.038Z,2.10
2018-09-10T07:50:52.127Z,2.20
2018-09-10T07:51:55.293Z,2.02
2018-09-10T07:52:58.321Z,2.37
2018-09-10T07:54:01.328Z,2.50
2018-09-10T07:55:04.320Z,2.50
2018-09-10T07:56:07.376Z,2.30
2018-09-10T07:57:10.382Z,2.37
2018-09-10T07:58:13.492Z,2.27
2018-09-10T07:59:16.527Z,2.10
2018-09-10T08:00:19.495Z,2.12
2018-09-10T08:01:22.548Z,2.15
2018-09-10T08:02:25.593Z,2.60
2018-09-10T08:03:28.605Z,2.17
2018-09-10T08:04:31.636Z,2.00
2018-09-10T08:05:34.641Z,2.85
2018-09-10T08:06:37.658Z,2.15
2018-09-10T08:07:40.674Z,2.22
2018-09-10T08:08:43.692Z,2.20
2018-09-10T08:09:46.729Z,2.40
2018-09-10T08:10:49.751Z,1.90
2018-09-10T08:11:52.787Z,2.90
2018-09-10T08:12:55.773Z,2.50
2018-09-10T08:13:58.802Z,2.02
2018-09-10T08:15:01.856Z,2.10
2018-09-10T08:16:05.000Z,2.30
2018-09-10T08:17:08.109Z,2.22
2018-09-10T08:18:11.140Z,1.92
2018-09-10T08:19:14.173Z,2.40
2018-09-10T08:20:17.191Z,1.90
2018-09-10T08:21:20.183Z,2.22
2018-09-10T08:22:23.188Z,1.98
2018-09-10T08:23:26.255Z,2.12
2018-09-10T08:24:29.255Z,2.20
2018-09-10T08:25:32.246Z,2.02
2018-09-10T08:26:35.215Z,1.87
2018-09-10T08:27:38.243Z,2.33
2018-09-10T08:28:41.232Z,2.10
2018-09-10T08:29:44.294Z,2.37
2018-09-10T08:30:47.325Z,1.98
2018-09-10T08:31:50.316Z,2.25
2018-09-10T08:32:53.320Z,2.20
2018-09-10T08:33:56.548Z,2.60
2018-09-10T08:34:59.565Z,1.85
2018-09-10T08:36:02.656Z,2.05
2018-09-10T08:37:05.688Z,2.05
2018-09-10T08:38:08.736Z,2.10
2018-09-10T08:39:11.721Z,2.15
2018-09-10T08:40:14.725Z,1.92
2018-09-10T08:41:17.672Z,2.37
2018-09-10T08:42:20.737Z,1.90
2018-09-10T08:43:23.784Z,2.10
2018-09-10T08:44:27.928Z,2.10
2018-09-10T08:45:30.934Z,2.05
2018-09-10T08:46:33.984Z,2.17
2018-09-10T08:47:37.059Z,2.10
2018-09-10T08:48:40.077Z,1.95
2018-09-10T08:49:43.093Z,2.17
2018-09-10T08:50:46.423Z,2.17
2018-09-10T08:51:49.455Z,2.15
2018-09-10T08:52:52.509Z,2.10
2018-09-10T08:53:55.671Z,1.87
2018-09-10T08:54:59.189Z,1.85
2018-09-10T08:56:02.030Z,2.10
2018-09-10T08:57:04.986Z,2.20
2018-09-10T08:58:08.001Z,1.95
2018-09-10T08:59:11.057Z,1.90
2018-09-10T09:00:14.117Z,2.00
2018-09-10T09:01:19.416Z,1.82
2018-09-10T09:02:22.548Z,1.90
2018-09-10T09:03:25.708Z,1.98
2018-09-10T09:04:28.745Z,1.95
2018-09-10T09:05:31.761Z,2.30
2018-09-10T09:06:34.782Z,1.92
2018-09-10T09:07:38.090Z,2.00
2018-09-10T09:08:41.068Z,1.90
2018-09-10T09:09:44.124Z,1.90
2018-09-10T09:10:47.117Z,1.80
2018-09-10T09:11:50.186Z,2.27
2018-09-10T09:12:53.179Z,1.90
2018-09-10T09:13:56.188Z,2.10
2018-09-10T09:14:59.191Z,1.95
2018-09-10T09:16:02.231Z,1.90
2018-09-10T09:17:05.311Z,1.98
2018-09-10T09:18:08.331Z,2.42
2018-09-10T09:19:11.385Z,2.20
2018-09-10T09:20:14.384Z,2.17
2018-09-10T09:21:17.364Z,1.85
2018-09-10T09:22:20.427Z,2.35
2018-09-10T09:23:23.456Z,2.02
2018-09-10T09:24:26.521Z,2.02
2018-09-10T09:25:29.579Z,2.02
2018-09-10T09:26:32.608Z,1.95
2018-09-10T09:27:35.721Z,2.20
2018-09-10T09:28:38.696Z,2.05
2018-09-10T09:29:41.715Z,2.20
2018-09-10T09:30:44.698Z,2.25
2018-09-10T09:31:47.677Z,2.22
2018-09-10T09:32:50.645Z,2.25
2018-09-10T09:33:53.728Z,2.47
2018-09-10T09:34:58.791Z,2.45
2018-09-10T09:36:07.227Z,1.80
2018-09-10T09:37:15.583Z,2.17
2018-09-10T09:38:24.002Z,2.15
2018-09-10T09:39:32.517Z,2.30
2018-09-10T09:42:47.132Z,2.20
2018-09-10T09:43:55.593Z,2.30
2018-09-10T09:45:04.140Z,2.20
2018-09-10T09:46:08.748Z,1.90
2018-09-10T09:47:11.791Z,2.30
2018-09-10T09:48:14.775Z,1.90
2018-09-10T09:49:17.791Z,2.12
2018-09-10T09:50:20.821Z,2.00
2018-09-10T09:51:23.840Z,1.82
2018-09-10T09:52:26.808Z,2.30
2018-09-10T09:53:29.852Z,2.00
2018-09-10T09:54:32.818Z,2.30
2018-09-10T09:55:35.961Z,2.00
2018-09-10T09:56:39.083Z,2.30
2018-09-10T09:57:42.096Z,2.00
2018-09-10T09:58:45.153Z,2.08
2018-09-10T09:59:48.319Z,2.10
2018-09-10T10:00:54.128Z,1.95
2018-09-10T10:02:03.332Z,1.90
2018-09-10T10:03:15.354Z,2.30
2018-09-10T10:04:18.937Z,2.08
2018-09-10T10:05:28.849Z,1.90
2018-09-10T10:06:33.469Z,2.00
2018-09-10T10:07:38.339Z,2.40
2018-09-10T10:08:42.467Z,1.90
2018-09-10T10:09:45.933Z,2.15
2018-09-10T10:10:50.826Z,1.90
2018-09-10T10:11:54.540Z,2.05
2018-09-10T10:12:58.346Z,1.95
2018-09-10T10:14:01.456Z,2.05
2018-09-10T10:15:04.456Z,2.10
2018-09-10T10:16:07.545Z,1.75
2018-09-10T10:17:10.604Z,2.17
2018-09-10T10:18:13.604Z,1.80
2018-09-10T10:19:16.592Z,2.02
2018-09-10T10:20:19.605Z,2.30
2018-09-10T10:21:22.590Z,2.02
2018-09-10T10:22:25.552Z,2.27
2018-09-10T10:23:28.560Z,1.90
2018-09-10T10:24:31.564Z,1.70
2018-09-10T10:25:34.531Z,1.90
2018-09-10T10:26:37.568Z,2.10
2018-09-10T10:27:40.635Z,1.92
2018-09-10T10:28:43.631Z,1.82
2018-09-10T10:29:46.699Z,1.70
2018-09-10T10:30:49.902Z,2.27
2018-09-10T10:31:53.120Z,1.87
2018-09-10T10:32:56.214Z,2.47
2018-09-10T10:33:59.249Z,2.10
2018-09-10T10:35:02.316Z,1.75
2018-09-10T10:36:05.620Z,1.87
2018-09-10T10:37:08.663Z,2.10
2018-09-10T10:38:11.799Z,2.17
2018-09-10T10:39:14.829Z,1.85
2018-09-10T10:40:17.959Z,1.87
2018-09-10T10:41:20.980Z,1.80
2018-09-10T10:42:24.013Z,2.37
2018-09-10T10:43:27.017Z,1.92
2018-09-10T10:44:30.375Z,1.75
2018-09-10T10:45:33.421Z,1.60
2018-09-10T10:46:36.482Z,1.92
2018-09-10T10:47:39.516Z,1.75
2018-09-10T10:48:42.542Z,1.90
2018-09-10T10:49:45.578Z,1.92
2018-09-10T10:50:48.898Z,1.90
2018-09-10T10:51:51.867Z,1.80
2018-09-10T10:52:54.912Z,1.87
2018-09-10T10:53:57.920Z,1.70
2018-09-10T10:55:00.992Z,1.98
2018-09-10T10:56:03.993Z,2.08
2018-09-10T10:57:07.010Z,1.92
2018-09-10T10:58:10.049Z,1.87
2018-09-10T10:59:13.102Z,1.92
2018-09-10T11:00:16.124Z,1.87
2018-09-10T11:01:19.195Z,1.87
2018-09-10T11:02:22.335Z,1.98
2018-09-10T11:03:25.391Z,1.60
2018-09-10T11:04:28.529Z,1.70
2018-09-10T11:05:31.631Z,1.60
2018-09-10T11:06:34.653Z,2.17
2018-09-10T11:07:37.683Z,1.62
2018-09-10T11:08:40.757Z,1.77
2018-09-10T11:09:43.803Z,1.80
2018-09-10T11:10:46.873Z,2.00
2018-09-10T11:11:49.880Z,1.80
2018-09-10T11:12:52.893Z,1.67
2018-09-10T11:13:55.912Z,2.08
2018-09-10T11:14:58.955Z,1.67
2018-09-10T11:16:01.992Z,1.75
2018-09-10T11:17:05.042Z,1.85
2018-09-10T11:18:08.062Z,2.05
2018-09-10T11:19:11.203Z,1.60
2018-09-10T11:20:14.204Z,2.05
2018-09-10T11:21:17.471Z,1.60
2018-09-10T11:22:20.756Z,1.62
2018-09-10T11:23:23.862Z,1.82
2018-09-10T11:24:26.865Z,1.52
2018-09-10T11:25:29.897Z,1.85
2018-09-10T11:26:32.888Z,1.50
2018-09-10T11:27:35.866Z,1.67
2018-09-10T11:28:38.921Z,1.80
2018-09-10T11:29:42.075Z,1.70
2018-09-10T11:30:45.748Z,1.92
2018-09-10T11:31:48.818Z,1.70
2018-09-10T11:32:51.861Z,1.47
2018-09-10T11:33:54.856Z,1.65
2018-09-10T11:34:57.984Z,1.67
2018-09-10T11:36:01.055Z,1.82
2018-09-10T11:37:04.096Z,1.60
2018-09-10T11:38:07.241Z,1.47
2018-09-10T11:39:10.260Z,1.42
2018-09-10T11:40:13.415Z,1.82
2018-09-10T11:41:16.461Z,1.67
2018-09-10T11:42:19.861Z,1.95
2018-09-10T11:43:22.940Z,1.70
2018-09-10T11:44:26.013Z,1.62
2018-09-10T11:45:29.036Z,1.70
2018-09-10T11:46:32.054Z,1.80
2018-09-10T11:47:35.115Z,1.80
2018-09-10T11:48:38.161Z,1.70
2018-09-10T11:49:41.196Z,1.52
2018-09-10T11:50:44.240Z,1.55
2018-09-10T11:51:47.369Z,1.37
2018-09-10T11:52:50.376Z,1.50
2018-09-10T11:53:53.416Z,1.50
2018-09-10T11:54:56.489Z,1.52
2018-09-10T11:55:59.541Z,2.00
2018-09-10T11:57:02.750Z,1.70
2018-09-10T11:58:05.783Z,1.40
2018-09-10T11:59:08.821Z,1.77
2018-09-10T12:00:11.838Z,1.70
2018-09-10T12:01:14.805Z,1.65
2018-09-10T12:02:17.904Z,1.40
2018-09-10T12:03:20.966Z,1.50
2018-09-10T12:04:24.000Z,1.62
2018-09-10T12:05:27.014Z,1.30
2018-09-10T12:06:30.040Z,1.92
2018-09-10T12:07:33.052Z,1.55
2018-09-10T12:08:36.113Z,1.77
2018-09-10T12:09:39.188Z,1.62
2018-09-10T12:10:42.266Z,1.85
2018-09-10T12:11:45.282Z,1.75
2018-09-10T12:12:48.370Z,1.77
2018-09-10T12:13:51.434Z,1.60
2018-09-10T12:14:54.503Z,1.60
2018-09-10T12:15:57.535Z,1.60
2018-09-10T12:17:00.512Z,1.60
2018-09-10T12:18:03.566Z,1.60
2018-09-10T12:20:34.936Z,1.92
2018-09-10T12:21:38.680Z,1.65
2018-09-10T12:22:41.624Z,1.70
2018-09-10T12:23:44.672Z,1.62
2018-09-10T12:24:47.723Z,1.67
2018-09-10T12:25:50.774Z,1.50
2018-09-10T12:26:53.908Z,1.65
2018-09-10T12:27:57.092Z,1.82
2018-09-10T12:29:00.083Z,1.80
2018-09-10T12:30:03.123Z,1.65
2018-09-10T12:31:06.113Z,1.60
2018-09-10T12:32:09.140Z,1.80
2018-09-10T12:33:12.179Z,1.80
2018-09-10T12:34:15.219Z,1.57
2018-09-10T12:35:18.293Z,1.70
2018-09-10T12:36:21.294Z,1.60
2018-09-10T12:37:24.281Z,1.60
2018-09-10T12:38:27.285Z,1.70
2018-09-10T12:39:30.388Z,1.62
2018-09-10T12:40:33.365Z,1.52
2018-09-10T12:41:36.361Z,1.67
2018-09-10T12:42:39.352Z,1.75
2018-09-10T12:43:42.468Z,1.80
2018-09-10T12:44:45.613Z,1.95
2018-09-10T12:45:48.598Z,1.67
2018-09-10T12:46:51.670Z,1.70
2018-09-10T12:47:54.720Z,1.98
2018-09-10T12:48:57.765Z,1.60
2018-09-10T12:50:00.903Z,1.67
2018-09-10T12:51:04.093Z,1.90
2018-09-10T12:52:07.157Z,1.60
2018-09-10T12:53:10.252Z,1.82
2018-09-10T12:54:13.263Z,2.27
2018-09-10T12:55:16.464Z,1.90
2018-09-10T12:56:19.505Z,1.75
2018-09-10T12:57:22.519Z,1.82
2018-09-10T12:58:25.548Z,1.57
2018-09-10T12:59:28.652Z,1.95
2018-09-10T13:00:31.660Z,2.15
2018-09-10T13:01:34.716Z,1.80
2018-09-10T13:02:37.817Z,1.72
2018-09-10T13:03:40.840Z,2.00
2018-09-10T13:04:43.839Z,1.80
2018-09-10T13:05:46.858Z,1.67
2018-09-10T13:06:49.936Z,1.62
2018-09-10T13:07:53.005Z,1.87
2018-09-10T13:08:56.109Z,1.70
2018-09-10T13:09:59.165Z,1.60
2018-09-10T13:11:02.243Z,1.87
2018-09-10T13:12:05.558Z,1.82
2018-09-10T13:13:08.558Z,1.52
2018-09-10T13:14:11.563Z,1.60
2018-09-10T13:15:14.595Z,1.60
2018-09-10T13:16:17.697Z,2.08
2018-09-10T13:17:20.764Z,1.70
2018-09-10T13:18:23.845Z,1.70
2018-09-10T13:19:26.861Z,1.67
2018-09-10T13:20:29.894Z,1.80
2018-09-10T13:21:32.980Z,1.45
2018-09-10T13:22:36.094Z,1.55
2018-09-10T13:23:39.126Z,1.70
2018-09-10T13:24:42.374Z,1.60
2018-09-10T13:25:45.364Z,1.75
2018-09-10T13:26:48.576Z,1.90
2018-09-10T13:27:51.687Z,1.52
2018-09-10T13:28:54.699Z,1.98
2018-09-10T13:29:57.723Z,1.50
2018-09-10T13:31:00.824Z,1.77
2018-09-10T13:32:03.872Z,1.92
2018-09-10T13:33:06.943Z,1.80
2018-09-10T13:34:10.014Z,1.70
2018-09-10T13:35:13.048Z,1.50
2018-09-10T13:36:16.152Z,1.50
2018-09-10T13:37:19.181Z,1.70
2018-09-10T13:38:22.305Z,1.98
2018-09-10T13:39:25.340Z,1.95
2018-09-10T13:40:28.421Z,2.17
2018-09-10T13:41:31.540Z,1.67
2018-09-10T13:42:34.738Z,1.67
2018-09-10T13:43:37.883Z,1.92
2018-09-10T13:44:40.940Z,1.80
2018-09-10T13:45:43.943Z,1.80
2018-09-10T13:46:47.180Z,1.95
2018-09-10T13:47:50.332Z,1.85
2018-09-10T13:48:53.379Z,1.35
2018-09-10T13:49:56.469Z,1.70
2018-09-10T13:50:59.473Z,1.80
2018-09-10T13:52:02.710Z,1.80
2018-09-10T13:53:05.771Z,1.95
2018-09-10T13:54:08.857Z,1.98
2018-09-10T13:55:11.844Z,1.85
2018-09-10T13:56:14.910Z,2.17
2018-09-10T13:57:17.986Z,1.92
2018-09-10T13:58:21.093Z,1.92
2018-09-10T13:59:24.095Z,1.90
2018-09-10T14:00:27.273Z,1.82
2018-09-10T14:01:30.545Z,1.92
2018-09-10T14:02:34.219Z,2.20
2018-09-10T14:03:37.228Z,1.90
2018-09-10T14:04:40.296Z,2.37
2018-09-10T14:05:43.428Z,2.08
2018-09-10T14:06:46.451Z,2.05